Terminal Aerodrome Forecast
Issued by NWS

Home | Current Version | Previous Version | Text Only | Print | Product List | Glossary On
Versions: 1 2 3 4 5 6 7 8 9 10 11 12 13 14 15 16 17 18 19 20 21 22 23
613
FTUS43 KABR 252322
TAFPIR
TAF
KPIR 252322Z 2600/2624 11011KT P6SM BKN130
     FM260600 12008KT P6SM BKN025
     FM260800 12007KT 6SM BR OVC015
     FM261200 10006KT 6SM BR OVC008
     FM261900 06005KT P6SM OVC025=

USA.gov is the U.S. government's official web portal to all federal, state and local government web resources and services.